createdAt,value
2022-10-29T00:02:03.124Z,12.95
2022-10-29T00:04:29.942Z,12.85
2022-10-29T00:06:56.370Z,12.80
2022-10-29T00:09:22.806Z,12.97
2022-10-29T00:11:49.215Z,13.00
2022-10-29T00:14:16.344Z,12.82
2022-10-29T00:16:42.808Z,12.73
2022-10-29T00:19:09.563Z,12.86
2022-10-29T00:21:37.980Z,12.96
2022-10-29T00:24:04.914Z,12.76
2022-10-29T00:26:31.416Z,12.74
2022-10-29T00:28:57.890Z,12.85
2022-10-29T00:31:25.039Z,12.86
2022-10-29T00:33:53.720Z,12.80
2022-10-29T00:36:24.985Z,12.81
2022-10-29T00:38:51.495Z,12.71
2022-10-29T00:41:23.698Z,12.71
2022-10-29T00:43:52.955Z,12.87
2022-10-29T00:46:31.199Z,12.78
2022-10-29T00:48:58.947Z,12.66
2022-10-29T00:51:26.789Z,12.68
2022-10-29T00:53:58.630Z,12.69
2022-10-29T00:56:27.134Z,12.66
2022-10-29T00:58:53.929Z,12.70
2022-10-29T01:01:20.676Z,12.68
2022-10-29T01:03:48.270Z,12.66
2022-10-29T01:06:14.883Z,12.73
2022-10-29T01:08:41.444Z,12.83
2022-10-29T01:11:40.438Z,12.77
2022-10-29T01:14:18.711Z,12.71
2022-10-29T01:16:57.252Z,12.69
2022-10-29T01:19:50.644Z,12.68
2022-10-29T01:22:34.123Z,12.58
2022-10-29T01:25:15.467Z,12.65
2022-10-29T01:27:54.469Z,12.64
2022-10-29T01:30:52.205Z,12.58
2022-10-29T01:33:33.775Z,12.63
2022-10-29T01:36:16.265Z,12.62
2022-10-29T01:39:12.729Z,12.69
2022-10-29T01:41:50.468Z,12.59
2022-10-29T01:44:28.914Z,12.67
2022-10-29T01:47:00.460Z,12.65
2022-10-29T01:49:34.648Z,12.67
2022-10-29T01:52:03.443Z,12.73
2022-10-29T01:54:29.930Z,12.71
2022-10-29T01:56:58.219Z,12.68
2022-10-29T01:59:36.122Z,12.68
2022-10-29T02:02:32.219Z,12.60
2022-10-29T02:05:20.291Z,12.70
2022-10-29T02:07:53.161Z,12.46
2022-10-29T02:10:28.430Z,12.53
2022-10-29T02:12:56.014Z,12.41
2022-10-29T02:15:34.720Z,12.35
2022-10-29T02:18:03.527Z,12.49
2022-10-29T02:20:30.261Z,12.52
2022-10-29T02:22:57.207Z,12.52
2022-10-29T02:25:24.543Z,12.35
2022-10-29T02:27:51.175Z,12.49
2022-10-29T02:30:17.858Z,12.44
2022-10-29T02:32:44.619Z,12.45
2022-10-29T02:35:11.223Z,12.57
2022-10-29T02:37:38.064Z,12.62
2022-10-29T02:40:04.863Z,12.55
2022-10-29T02:42:31.278Z,12.54
2022-10-29T02:44:57.726Z,12.65
2022-10-29T02:47:24.459Z,12.70
2022-10-29T02:49:50.936Z,12.60
2022-10-29T02:52:17.370Z,12.57
2022-10-29T02:54:43.811Z,12.57
2022-10-29T02:57:10.261Z,12.52
2022-10-29T02:59:36.764Z,12.50
2022-10-29T03:02:03.851Z,12.44
2022-10-29T03:04:30.507Z,12.28
2022-10-29T03:06:56.953Z,12.41
2022-10-29T03:09:23.455Z,12.27
2022-10-29T03:11:50.035Z,12.33
2022-10-29T03:14:16.520Z,12.28
2022-10-29T03:16:43.005Z,12.31
2022-10-29T03:19:09.478Z,12.53
2022-10-29T03:21:35.900Z,12.53
2022-10-29T03:24:02.482Z,12.60
2022-10-29T03:26:28.924Z,12.57
2022-10-29T03:28:55.790Z,12.57
2022-10-29T03:31:22.317Z,12.48
2022-10-29T03:33:48.769Z,12.42
2022-10-29T03:36:15.243Z,12.47
2022-10-29T03:38:41.702Z,12.33
2022-10-29T03:41:10.514Z,12.45
2022-10-29T03:43:38.321Z,12.35
2022-10-29T03:46:05.135Z,12.42
2022-10-29T03:48:31.980Z,12.34
2022-10-29T03:51:01.572Z,12.34
2022-10-29T03:53:29.141Z,12.36
2022-10-29T03:55:56.957Z,12.42
2022-10-29T03:58:24.766Z,12.32
2022-10-29T04:01:00.088Z,12.41
2022-10-29T04:03:28.623Z,12.33
2022-10-29T04:05:55.789Z,12.16
2022-10-29T04:08:22.468Z,12.35
2022-10-29T04:10:50.605Z,12.21
2022-10-29T04:13:17.876Z,12.29
2022-10-29T04:15:44.580Z,12.36
2022-10-29T04:18:11.164Z,12.15
2022-10-29T04:20:57.002Z,12.27
2022-10-29T04:28:58.665Z,12.27
2022-10-29T04:31:25.155Z,12.29
2022-10-29T04:33:53.390Z,12.20
2022-10-29T04:36:19.786Z,12.33
2022-10-29T04:38:46.389Z,12.36
2022-10-29T04:41:12.811Z,12.26
2022-10-29T04:43:39.207Z,12.26
2022-10-29T04:46:05.671Z,12.16
2022-10-29T04:48:32.225Z,12.22
2022-10-29T04:50:58.643Z,12.15
2022-10-29T04:53:25.066Z,12.25
2022-10-29T04:55:51.511Z,12.12
2022-10-29T04:58:19.924Z,12.15
2022-10-29T05:00:46.658Z,12.00
2022-10-29T05:03:13.367Z,12.13
2022-10-29T05:05:40.591Z,12.15
2022-10-29T05:08:07.198Z,12.06
2022-10-29T05:10:36.501Z,12.05
2022-10-29T05:13:07.383Z,12.08
2022-10-29T05:15:34.490Z,12.11
2022-10-29T05:18:01.784Z,12.11
2022-10-29T05:20:28.319Z,12.08
2022-10-29T05:23:02.924Z,11.99
2022-10-29T05:25:30.912Z,11.97
2022-10-29T05:28:11.352Z,12.03
2022-10-29T05:30:38.756Z,12.13
2022-10-29T05:33:09.802Z,12.07
2022-10-29T05:35:36.307Z,11.99
2022-10-29T05:38:03.520Z,12.06
2022-10-29T05:40:30.312Z,12.08
2022-10-29T05:42:57.396Z,12.07
2022-10-29T05:45:23.951Z,11.96
2022-10-29T05:47:57.509Z,12.08
2022-10-29T05:50:24.427Z,12.06
2022-10-29T05:52:59.041Z,12.03
2022-10-29T05:55:26.732Z,12.10
2022-10-29T05:57:57.522Z,12.19
2022-10-29T06:00:25.217Z,12.17
2022-10-29T06:02:51.804Z,12.26
2022-10-29T06:05:18.452Z,12.16
2022-10-29T06:07:44.911Z,12.17
2022-10-29T06:10:11.429Z,12.13
2022-10-29T06:12:37.878Z,12.01
2022-10-29T06:15:04.836Z,12.10
2022-10-29T06:17:31.283Z,12.11
2022-10-29T06:19:57.828Z,12.02
2022-10-29T06:22:24.304Z,12.07
2022-10-29T06:24:50.761Z,12.06
2022-10-29T06:27:17.232Z,12.05
2022-10-29T06:29:43.623Z,11.94
2022-10-29T06:32:10.033Z,11.94
2022-10-29T06:34:36.437Z,11.96
2022-10-29T06:37:02.942Z,12.18
2022-10-29T06:39:29.434Z,12.19
2022-10-29T06:41:55.836Z,12.20
2022-10-29T06:44:22.298Z,12.19
2022-10-29T06:46:48.739Z,12.33
2022-10-29T06:49:15.186Z,12.27
2022-10-29T06:51:41.600Z,12.26
2022-10-29T06:54:08.304Z,12.41
2022-10-29T06:56:34.737Z,12.52
2022-10-29T06:59:01.291Z,12.48
2022-10-29T07:01:31.604Z,12.55
2022-10-29T07:03:59.092Z,12.41
2022-10-29T07:06:26.038Z,12.44
2022-10-29T07:08:52.515Z,12.57
2022-10-29T07:11:18.964Z,12.60
2022-10-29T07:13:45.433Z,12.61
2022-10-29T07:16:11.801Z,12.67
2022-10-29T07:18:38.221Z,12.73
2022-10-29T07:21:05.255Z,12.59
2022-10-29T07:23:31.677Z,12.61
2022-10-29T07:25:58.126Z,12.60
2022-10-29T07:28:25.541Z,12.64
2022-10-29T07:30:53.661Z,12.73
2022-10-29T07:33:20.080Z,12.83
2022-10-29T07:35:46.514Z,12.86
2022-10-29T07:38:13.223Z,12.92
2022-10-29T07:40:46.364Z,12.96
2022-10-29T07:43:12.742Z,13.02
2022-10-29T07:45:39.151Z,12.96
2022-10-29T07:48:09.893Z,13.03
2022-10-29T07:50:38.130Z,13.17
2022-10-29T07:53:06.264Z,13.18
2022-10-29T07:55:32.943Z,13.26
2022-10-29T07:58:04.865Z,13.25
2022-10-29T08:00:34.113Z,13.26
2022-10-29T08:03:01.070Z,13.36
2022-10-29T08:05:29.409Z,13.37
2022-10-29T08:07:56.654Z,13.40
2022-10-29T08:10:24.484Z,13.41
2022-10-29T08:12:52.691Z,13.50
2022-10-29T08:15:19.888Z,13.58
2022-10-29T08:17:46.868Z,13.49
2022-10-29T08:20:14.796Z,13.61
2022-10-29T08:22:41.508Z,13.69
2022-10-29T08:25:08.666Z,13.66
2022-10-29T08:27:35.565Z,13.69
2022-10-29T08:30:02.160Z,13.64
2022-10-29T08:32:28.644Z,13.81
2022-10-29T08:34:56.189Z,13.87
2022-10-29T08:37:22.743Z,13.98
2022-10-29T08:39:49.202Z,13.99
2022-10-29T08:42:29.785Z,14.05
2022-10-29T08:45:41.607Z,14.11
2022-10-29T08:48:30.120Z,14.23
2022-10-29T08:51:15.147Z,14.31
2022-10-29T08:53:58.970Z,14.36
2022-10-29T08:56:39.313Z,14.36
2022-10-29T08:59:26.464Z,14.44
2022-10-29T09:01:56.922Z,14.47
2022-10-29T09:04:30.431Z,14.48
2022-10-29T09:07:11.990Z,14.57
2022-10-29T09:12:41.743Z,14.59
2022-10-29T09:15:47.255Z,14.65
2022-10-29T09:18:29.436Z,14.70
2022-10-29T09:21:08.265Z,14.79
2022-10-29T09:23:47.949Z,14.88
2022-10-29T09:26:31.278Z,14.89
2022-10-29T09:29:15.809Z,14.95
2022-10-29T09:31:53.873Z,15.01
2022-10-29T09:34:41.042Z,15.03
2022-10-29T09:37:16.696Z,15.06
2022-10-29T09:39:48.678Z,15.13
2022-10-29T09:42:32.609Z,15.25
2022-10-29T09:45:02.744Z,15.24
2022-10-29T09:47:39.059Z,15.31
2022-10-29T09:50:09.275Z,15.36
2022-10-29T09:52:39.866Z,15.40
2022-10-29T09:55:11.446Z,15.40
2022-10-29T09:57:41.659Z,15.45
2022-10-29T10:00:25.911Z,15.43
2022-10-29T10:03:08.119Z,15.49
2022-10-29T10:05:56.134Z,15.50
2022-10-29T10:08:22.582Z,15.48
2022-10-29T10:10:54.684Z,15.49
2022-10-29T10:13:33.808Z,15.61
2022-10-29T10:16:05.125Z,15.68
2022-10-29T10:18:31.493Z,15.73
2022-10-29T10:21:08.537Z,15.75
2022-10-29T10:23:42.848Z,16.04
2022-10-29T10:26:36.605Z,15.99
2022-10-29T10:29:23.137Z,16.09
2022-10-29T10:31:50.440Z,16.09
2022-10-29T10:34:23.799Z,16.11
2022-10-29T10:36:50.740Z,16.13
2022-10-29T10:39:28.250Z,16.19
2022-10-29T10:42:00.443Z,16.35
2022-10-29T10:44:27.946Z,16.46
2022-10-29T10:46:57.169Z,16.55
2022-10-29T10:49:53.011Z,16.54
2022-10-29T10:52:29.353Z,16.56
2022-10-29T10:55:02.848Z,16.60
2022-10-29T10:57:50.743Z,16.53
2022-10-29T11:00:22.454Z,16.49
2022-10-29T11:02:52.276Z,16.51
2022-10-29T11:05:21.239Z,16.57
2022-10-29T11:08:18.154Z,16.60
2022-10-29T11:10:58.750Z,16.58
2022-10-29T11:13:29.242Z,16.68
2022-10-29T11:16:22.505Z,16.67
2022-10-29T11:18:56.841Z,16.68
2022-10-29T11:21:32.899Z,16.73
2022-10-29T11:24:10.010Z,16.86
2022-10-29T11:26:43.413Z,16.84
2022-10-29T11:29:42.936Z,16.94
2022-10-29T11:32:35.191Z,16.93
2022-10-29T11:35:16.622Z,16.87
2022-10-29T11:37:49.581Z,16.85
2022-10-29T11:40:23.769Z,17.05
2022-10-29T11:42:50.830Z,17.08
2022-10-29T11:45:25.372Z,17.04
2022-10-29T11:48:12.094Z,17.04
2022-10-29T11:50:54.387Z,17.10
2022-10-29T11:53:51.019Z,17.08
2022-10-29T11:56:25.784Z,17.18
2022-10-29T11:58:56.804Z,17.13
2022-10-29T12:02:06.712Z,17.18
2022-10-29T12:04:47.598Z,17.40
2022-10-29T12:07:51.502Z,17.29
2022-10-29T12:10:39.508Z,17.25
2022-10-29T12:13:21.036Z,17.49
2022-10-29T12:16:03.586Z,17.29
2022-10-29T12:18:44.847Z,17.29
2022-10-29T12:21:22.441Z,17.28
2022-10-29T12:24:00.087Z,17.21
2022-10-29T12:26:31.479Z,17.25
2022-10-29T12:29:20.831Z,17.34
2022-10-29T12:32:28.783Z,17.41
2022-10-29T12:35:10.455Z,17.40
2022-10-29T12:37:55.124Z,17.42
2022-10-29T12:40:25.383Z,17.46
2022-10-29T12:42:52.938Z,17.44
2022-10-29T12:46:06.500Z,17.42
2022-10-29T12:48:34.724Z,17.36
2022-10-29T12:51:09.224Z,17.35
2022-10-29T12:53:53.077Z,17.39
2022-10-29T12:56:20.268Z,17.41
2022-10-29T12:58:57.190Z,17.44
2022-10-29T13:01:50.122Z,17.43
2022-10-29T13:04:24.737Z,17.51
2022-10-29T13:07:00.974Z,17.44
2022-10-29T13:09:30.798Z,17.45
2022-10-29T13:12:02.383Z,17.40
2022-10-29T13:14:45.572Z,17.45
2022-10-29T13:17:40.067Z,17.42
2022-10-29T13:20:22.037Z,17.43
2022-10-29T13:22:54.234Z,17.41
2022-10-29T13:25:42.141Z,17.40
2022-10-29T13:28:08.554Z,17.39
2022-10-29T13:30:44.446Z,17.35
2022-10-29T13:33:26.149Z,17.39
2022-10-29T13:35:55.503Z,17.39
2022-10-29T13:38:47.051Z,17.40
2022-10-29T13:41:29.529Z,17.37
2022-10-29T13:44:06.590Z,17.36
2022-10-29T13:47:05.097Z,17.35
2022-10-29T13:49:37.481Z,17.33
2022-10-29T13:52:09.901Z,17.35
2022-10-29T13:55:00.301Z,17.36
2022-10-29T13:57:32.822Z,17.41
2022-10-29T14:00:15.843Z,17.36
2022-10-29T14:02:42.237Z,17.35
2022-10-29T14:05:14.913Z,17.39
2022-10-29T14:07:44.579Z,17.37
2022-10-29T14:10:22.419Z,17.34
2022-10-29T14:12:57.314Z,17.31
2022-10-29T14:15:24.341Z,17.27
2022-10-29T14:17:50.788Z,17.28
2022-10-29T14:20:28.499Z,17.24
2022-10-29T14:22:55.416Z,17.20
2022-10-29T14:25:24.999Z,17.20
2022-10-29T14:28:10.335Z,17.17
2022-10-29T14:30:36.858Z,17.16
2022-10-29T14:33:27.119Z,17.17
2022-10-29T14:35:59.091Z,17.17
2022-10-29T14:38:36.833Z,17.16
2022-10-29T14:41:03.505Z,17.16
2022-10-29T14:43:31.465Z,17.18
2022-10-29T14:46:28.966Z,17.20
2022-10-29T14:49:02.940Z,17.21
2022-10-29T14:51:37.444Z,17.20
2022-10-29T14:54:06.926Z,17.18
2022-10-29T14:56:37.763Z,17.14
2022-10-29T14:59:19.877Z,17.14
2022-10-29T15:01:51.636Z,17.10
2022-10-29T15:04:24.627Z,17.14
2022-10-29T15:06:51.220Z,17.08
2022-10-29T15:09:26.767Z,17.10
2022-10-29T15:12:23.172Z,17.14
2022-10-29T15:14:53.687Z,17.11
2022-10-29T15:17:28.921Z,17.11
2022-10-29T15:19:59.661Z,17.09
2022-10-29T15:22:36.093Z,17.05
2022-10-29T15:25:07.854Z,16.97
2022-10-29T15:27:39.718Z,16.89
2022-10-29T15:30:06.756Z,16.88
2022-10-29T15:32:33.298Z,16.87
2022-10-29T15:35:00.484Z,16.81
2022-10-29T15:37:42.078Z,16.77
2022-10-29T15:40:23.283Z,16.67
2022-10-29T15:42:50.180Z,16.65
2022-10-29T15:45:21.059Z,16.55
2022-10-29T15:47:58.287Z,16.40
2022-10-29T15:50:34.696Z,16.38
2022-10-29T15:53:05.801Z,16.31
2022-10-29T15:55:37.779Z,16.26
2022-10-29T15:58:09.111Z,16.21
2022-10-29T16:00:35.538Z,16.17
2022-10-29T16:03:27.123Z,16.16
2022-10-29T16:06:03.809Z,16.06
2022-10-29T16:08:34.348Z,16.04
2022-10-29T16:11:05.174Z,15.99
2022-10-29T16:13:32.969Z,15.91
2022-10-29T16:15:59.409Z,15.89
2022-10-29T16:18:25.830Z,15.80
2022-10-29T16:20:57.817Z,15.78
2022-10-29T16:23:24.309Z,15.74
2022-10-29T16:25:50.660Z,15.74
2022-10-29T16:28:17.196Z,15.72
2022-10-29T16:30:49.380Z,15.69
2022-10-29T16:33:18.809Z,15.67
2022-10-29T16:35:45.321Z,15.62
2022-10-29T16:38:12.511Z,15.60
2022-10-29T16:40:39.843Z,15.54
2022-10-29T16:43:06.268Z,15.54
2022-10-29T16:45:33.608Z,15.49
2022-10-29T16:48:00.771Z,15.46
2022-10-29T16:50:31.153Z,15.44
2022-10-29T16:53:06.160Z,15.39
2022-10-29T16:55:34.730Z,15.36
2022-10-29T16:58:01.383Z,15.35
2022-10-29T17:00:31.544Z,15.33
2022-10-29T17:03:04.820Z,15.25
2022-10-29T17:05:37.677Z,15.24
2022-10-29T17:08:04.342Z,15.21
2022-10-29T17:10:31.460Z,15.20
2022-10-29T17:12:59.377Z,15.22
2022-10-29T17:15:26.618Z,15.18
2022-10-29T17:17:53.411Z,15.18
2022-10-29T17:20:20.230Z,15.17
2022-10-29T17:22:46.916Z,15.17
2022-10-29T17:25:13.514Z,15.08
2022-10-29T17:27:41.233Z,14.98
2022-10-29T17:30:09.349Z,15.02
2022-10-29T17:32:36.597Z,15.05
2022-10-29T17:35:03.279Z,14.99
2022-10-29T17:37:29.778Z,14.98
2022-10-29T17:39:56.214Z,14.93
2022-10-29T17:42:22.630Z,14.91
2022-10-29T17:44:49.034Z,14.92
2022-10-29T17:47:15.725Z,14.90
2022-10-29T17:49:42.112Z,14.94
2022-10-29T17:52:08.528Z,14.91
2022-10-29T17:54:35.420Z,14.83
2022-10-29T17:57:01.968Z,14.72
2022-10-29T17:59:28.343Z,14.81
2022-10-29T18:01:54.815Z,14.76
2022-10-29T18:04:21.305Z,14.78
2022-10-29T18:06:47.669Z,14.81
2022-10-29T18:09:17.118Z,14.76
2022-10-29T18:11:48.602Z,14.76
2022-10-29T18:14:15.009Z,14.72
2022-10-29T18:16:41.403Z,14.67
2022-10-29T18:19:08.047Z,14.66
2022-10-29T18:21:34.429Z,14.68
2022-10-29T18:24:00.945Z,14.67
2022-10-29T18:26:28.851Z,14.53
2022-10-29T18:28:55.720Z,14.59
2022-10-29T18:31:25.094Z,14.53
2022-10-29T18:33:51.527Z,14.55
2022-10-29T18:36:17.947Z,14.41
2022-10-29T18:38:48.590Z,14.53
2022-10-29T18:41:15.079Z,14.48
2022-10-29T18:43:41.478Z,14.42
2022-10-29T18:46:07.894Z,14.46
2022-10-29T18:48:39.008Z,14.36
2022-10-29T18:51:11.000Z,14.35
2022-10-29T18:53:38.478Z,14.47
2022-10-29T18:56:13.659Z,14.49
2022-10-29T18:58:40.693Z,14.46
2022-10-29T19:01:10.327Z,14.46
2022-10-29T19:03:38.081Z,14.47
2022-10-29T19:06:07.296Z,14.44
2022-10-29T19:08:35.691Z,14.41
2022-10-29T19:11:07.385Z,14.38
2022-10-29T19:13:34.481Z,14.44
2022-10-29T19:16:06.635Z,14.40
2022-10-29T19:18:33.664Z,14.33
2022-10-29T19:21:14.989Z,14.39
2022-10-29T19:23:42.299Z,14.37
2022-10-29T19:26:18.532Z,14.35
2022-10-29T19:28:46.732Z,14.35
2022-10-29T19:31:19.210Z,14.33
2022-10-29T19:33:50.441Z,14.31
2022-10-29T19:36:17.924Z,14.26
2022-10-29T19:38:44.624Z,14.22
2022-10-29T19:41:12.332Z,14.25
2022-10-29T19:43:40.004Z,14.27
2022-10-29T19:46:08.379Z,14.29
2022-10-29T19:48:35.514Z,14.25
2022-10-29T19:51:02.261Z,14.27
2022-10-29T19:53:28.627Z,14.27
2022-10-29T19:55:55.106Z,14.15
2022-10-29T19:58:23.753Z,14.11
2022-10-29T20:00:50.398Z,14.18
2022-10-29T20:03:18.255Z,14.20
2022-10-29T20:05:45.424Z,14.18
2022-10-29T20:08:15.795Z,14.16
2022-10-29T20:10:43.416Z,14.14
2022-10-29T20:13:09.889Z,14.03
2022-10-29T20:15:38.902Z,14.10
2022-10-29T20:18:05.587Z,14.04
2022-10-29T20:20:31.946Z,14.06
2022-10-29T20:22:59.984Z,14.10
2022-10-29T20:25:27.138Z,14.08
2022-10-29T20:27:53.487Z,14.05
2022-10-29T20:30:19.874Z,13.83
2022-10-29T20:32:46.232Z,13.90
2022-10-29T20:35:12.610Z,14.01
2022-10-29T20:37:38.999Z,13.97
2022-10-29T20:40:05.850Z,14.06
2022-10-29T20:42:32.235Z,14.07
2022-10-29T20:44:58.629Z,14.01
2022-10-29T20:47:25.073Z,14.03
2022-10-29T20:49:51.458Z,14.04
2022-10-29T20:52:17.829Z,14.00
2022-10-29T20:54:44.350Z,13.99
2022-10-29T20:57:10.724Z,13.99
2022-10-29T20:59:37.114Z,13.85
2022-10-29T21:02:03.694Z,13.96
2022-10-29T21:04:30.105Z,13.83
2022-10-29T21:06:56.490Z,13.88
2022-10-29T21:09:22.969Z,13.91
2022-10-29T21:11:49.410Z,13.81
2022-10-29T21:14:15.792Z,13.92
2022-10-29T21:16:42.166Z,13.90
2022-10-29T21:19:08.533Z,13.81
2022-10-29T21:21:34.947Z,13.75
2022-10-29T21:24:01.322Z,13.73
2022-10-29T21:26:28.404Z,13.84
2022-10-29T21:28:55.639Z,13.82
2022-10-29T21:31:22.689Z,13.76
2022-10-29T21:33:53.404Z,13.71
2022-10-29T21:36:20.828Z,13.71
2022-10-29T21:38:48.224Z,13.79
2022-10-29T21:41:15.379Z,13.79
2022-10-29T21:43:41.780Z,13.76
2022-10-29T21:46:08.359Z,13.73
2022-10-29T21:48:34.983Z,13.69
2022-10-29T21:51:11.103Z,13.71
2022-10-29T21:53:37.777Z,13.69
2022-10-29T21:56:07.048Z,13.69
2022-10-29T21:58:33.714Z,13.52
2022-10-29T22:01:10.527Z,13.60
2022-10-29T22:03:40.380Z,13.52
2022-10-29T22:06:11.270Z,13.57
2022-10-29T22:08:38.346Z,13.66
2022-10-29T22:11:05.221Z,13.60
2022-10-29T22:13:34.306Z,13.70
2022-10-29T22:16:01.982Z,13.65
2022-10-29T22:18:28.853Z,13.53
2022-10-29T22:21:13.563Z,13.56
2022-10-29T22:23:54.222Z,13.51
2022-10-29T22:26:22.912Z,13.55
2022-10-29T22:28:49.950Z,13.52
2022-10-29T22:31:17.992Z,13.42
2022-10-29T22:33:45.395Z,13.49
2022-10-29T22:36:19.378Z,13.36
2022-10-29T22:38:46.123Z,13.40
2022-10-29T22:41:18.167Z,13.33
2022-10-29T22:43:45.003Z,13.26
2022-10-29T22:46:14.094Z,13.42
2022-10-29T22:48:40.782Z,13.26
2022-10-29T22:51:14.561Z,13.37
2022-10-29T22:53:40.989Z,13.44
2022-10-29T22:56:10.888Z,13.44
2022-10-29T22:58:37.241Z,13.32
2022-10-29T23:01:12.845Z,13.24
2022-10-29T23:03:41.556Z,13.28
2022-10-29T23:06:13.216Z,13.27
2022-10-29T23:08:39.602Z,13.24
2022-10-29T23:11:19.345Z,13.43
2022-10-29T23:13:51.628Z,13.33
2022-10-29T23:16:18.953Z,13.28
2022-10-29T23:18:50.190Z,13.22
2022-10-29T23:21:17.125Z,13.26
2022-10-29T23:23:43.717Z,13.13
2022-10-29T23:26:11.465Z,13.17
2022-10-29T23:28:40.242Z,13.14
2022-10-29T23:31:11.201Z,13.18
2022-10-29T23:33:37.785Z,13.15
2022-10-29T23:36:06.495Z,13.18
2022-10-29T23:38:34.106Z,13.14
2022-10-29T23:41:01.335Z,13.11
2022-10-29T23:43:28.111Z,13.24
2022-10-29T23:45:54.581Z,13.25
2022-10-29T23:48:21.132Z,13.22
2022-10-29T23:50:47.936Z,13.12
2022-10-29T23:53:14.918Z,13.12
2022-10-29T23:55:44.955Z,13.11
2022-10-29T23:58:12.487Z,13.06
